sensor_id;sensor_type;location;lat;lon;timestamp;pressure;altitude;pressure_sealevel;temperature;humidity
52719;BME280;38616;42.140;24.760;2023-05-21T00:00:09;99339.59;;;17.81;61.19
52719;BME280;38616;42.140;24.760;2023-05-21T00:02:36;99330.69;;;18.05;60.53
52719;BME280;38616;42.140;24.760;2023-05-21T00:05:02;99315.13;;;17.88;60.67
52719;BME280;38616;42.140;24.760;2023-05-21T00:07:28;99322.44;;;18.05;60.42
52719;BME280;38616;42.140;24.760;2023-05-21T00:09:55;99325.66;;;18.07;60.51
52719;BME280;38616;42.140;24.760;2023-05-21T00:12:21;99312.69;;;17.86;60.56
52719;BME280;38616;42.140;24.760;2023-05-21T00:14:46;99317.25;;;17.82;61.11
52719;BME280;38616;42.140;24.760;2023-05-21T00:17:12;99309.19;;;17.65;61.76
52719;BME280;38616;42.140;24.760;2023-05-21T00:19:37;99305.06;;;17.71;61.59
52719;BME280;38616;42.140;24.760;2023-05-21T00:22:04;99302.00;;;17.72;61.37
52719;BME280;38616;42.140;24.760;2023-05-21T00:24:29;99293.81;;;18.06;60.41
52719;BME280;38616;42.140;24.760;2023-05-21T00:26:55;99301.41;;;18.22;59.87
52719;BME280;38616;42.140;24.760;2023-05-21T00:29:21;99306.53;;;18.44;59.36
52719;BME280;38616;42.140;24.760;2023-05-21T00:31:47;99299.31;;;18.52;58.82
52719;BME280;38616;42.140;24.760;2023-05-21T00:34:14;99281.22;;;18.64;58.46
52719;BME280;38616;42.140;24.760;2023-05-21T00:36:39;99285.47;;;18.73;58.10
52719;BME280;38616;42.140;24.760;2023-05-21T00:39:05;99288.00;;;18.91;57.79
52719;BME280;38616;42.140;24.760;2023-05-21T00:41:30;99283.63;;;18.78;57.89
52719;BME280;38616;42.140;24.760;2023-05-21T00:43:56;99285.31;;;18.45;59.02
52719;BME280;38616;42.140;24.760;2023-05-21T00:46:24;99284.38;;;18.41;59.45
52719;BME280;38616;42.140;24.760;2023-05-21T00:48:52;99287.53;;;18.52;59.17
52719;BME280;38616;42.140;24.760;2023-05-21T00:51:18;99280.84;;;18.40;59.58
52719;BME280;38616;42.140;24.760;2023-05-21T00:53:49;99274.44;;;18.36;59.68
52719;BME280;38616;42.140;24.760;2023-05-21T00:56:15;99286.03;;;18.08;60.70
52719;BME280;38616;42.140;24.760;2023-05-21T00:58:41;99280.06;;;18.06;60.81
52719;BME280;38616;42.140;24.760;2023-05-21T01:01:07;99281.34;;;17.87;61.71
52719;BME280;38616;42.140;24.760;2023-05-21T01:03:37;99284.09;;;17.87;61.97
52719;BME280;38616;42.140;24.760;2023-05-21T01:06:04;99280.63;;;17.99;61.46
52719;BME280;38616;42.140;24.760;2023-05-21T01:08:30;99273.34;;;17.95;61.58
52719;BME280;38616;42.140;24.760;2023-05-21T01:10:57;99277.91;;;18.12;61.13
52719;BME280;38616;42.140;24.760;2023-05-21T01:13:24;99262.94;;;17.67;61.94
52719;BME280;38616;42.140;24.760;2023-05-21T01:15:51;99279.84;;;17.56;62.29
52719;BME280;38616;42.140;24.760;2023-05-21T01:18:18;99280.53;;;17.23;63.76
52719;BME280;38616;42.140;24.760;2023-05-21T01:20:45;99281.13;;;17.08;64.60
52719;BME280;38616;42.140;24.760;2023-05-21T01:23:16;99269.38;;;16.98;64.85
52719;BME280;38616;42.140;24.760;2023-05-21T01:25:42;99275.03;;;17.02;64.65
52719;BME280;38616;42.140;24.760;2023-05-21T01:28:07;99271.31;;;17.49;63.24
52719;BME280;38616;42.140;24.760;2023-05-21T01:30:33;99268.66;;;17.62;62.74
52719;BME280;38616;42.140;24.760;2023-05-21T01:33:02;99272.66;;;17.64;62.53
52719;BME280;38616;42.140;24.760;2023-05-21T01:35:37;99272.25;;;17.75;61.98
52719;BME280;38616;42.140;24.760;2023-05-21T01:38:05;99263.28;;;17.65;62.16
52719;BME280;38616;42.140;24.760;2023-05-21T01:40:43;99267.75;;;17.70;62.33
52719;BME280;38616;42.140;24.760;2023-05-21T01:43:10;99272.41;;;17.91;61.78
52719;BME280;38616;42.140;24.760;2023-05-21T01:45:39;99271.16;;;18.09;61.03
52719;BME280;38616;42.140;24.760;2023-05-21T01:48:07;99264.94;;;18.00;61.03
52719;BME280;38616;42.140;24.760;2023-05-21T01:50:34;99259.47;;;18.12;60.79
52719;BME280;38616;42.140;24.760;2023-05-21T01:52:59;99268.78;;;17.99;60.99
52719;BME280;38616;42.140;24.760;2023-05-21T01:55:25;99259.34;;;17.87;61.31
52719;BME280;38616;42.140;24.760;2023-05-21T01:57:53;99253.94;;;18.00;60.98
52719;BME280;38616;42.140;24.760;2023-05-21T02:00:22;99257.66;;;18.16;60.60
52719;BME280;38616;42.140;24.760;2023-05-21T02:02:48;99251.19;;;18.00;60.69
52719;BME280;38616;42.140;24.760;2023-05-21T02:05:14;99249.41;;;18.16;60.38
52719;BME280;38616;42.140;24.760;2023-05-21T02:07:40;99251.78;;;18.18;60.12
52719;BME280;38616;42.140;24.760;2023-05-21T02:10:06;99252.25;;;18.20;60.08
52719;BME280;38616;42.140;24.760;2023-05-21T02:12:32;99242.50;;;18.10;60.23
52719;BME280;38616;42.140;24.760;2023-05-21T02:14:57;99250.69;;;17.98;60.52
52719;BME280;38616;42.140;24.760;2023-05-21T02:17:22;99246.75;;;18.08;60.71
52719;BME280;38616;42.140;24.760;2023-05-21T02:19:48;99243.66;;;18.09;60.27
52719;BME280;38616;42.140;24.760;2023-05-21T02:22:14;99255.81;;;17.87;61.32
52719;BME280;38616;42.140;24.760;2023-05-21T02:24:40;99250.66;;;18.07;60.75
52719;BME280;38616;42.140;24.760;2023-05-21T02:27:05;99248.44;;;18.00;60.82
52719;BME280;38616;42.140;24.760;2023-05-21T02:29:35;99244.78;;;18.08;60.21
52719;BME280;38616;42.140;24.760;2023-05-21T02:32:01;99243.53;;;17.84;60.52
52719;BME280;38616;42.140;24.760;2023-05-21T02:34:26;99251.28;;;17.27;62.12
52719;BME280;38616;42.140;24.760;2023-05-21T02:36:55;99244.59;;;17.37;61.96
52719;BME280;38616;42.140;24.760;2023-05-21T02:39:20;99245.53;;;17.41;61.92
52719;BME280;38616;42.140;24.760;2023-05-21T02:41:45;99245.22;;;17.43;61.88
52719;BME280;38616;42.140;24.760;2023-05-21T02:44:11;99247.88;;;17.09;63.00
52719;BME280;38616;42.140;24.760;2023-05-21T02:46:37;99244.31;;;17.09;63.18
52719;BME280;38616;42.140;24.760;2023-05-21T02:49:03;99245.88;;;17.19;62.63
52719;BME280;38616;42.140;24.760;2023-05-21T02:51:28;99248.66;;;17.31;62.44
52719;BME280;38616;42.140;24.760;2023-05-21T02:53:53;99244.31;;;17.09;62.46
52719;BME280;38616;42.140;24.760;2023-05-21T02:56:19;99242.78;;;17.41;61.78
52719;BME280;38616;42.140;24.760;2023-05-21T02:58:44;99247.41;;;17.50;61.22
52719;BME280;38616;42.140;24.760;2023-05-21T03:01:10;99251.63;;;17.68;60.74
52719;BME280;38616;42.140;24.760;2023-05-21T03:03:36;99249.44;;;17.74;60.26
52719;BME280;38616;42.140;24.760;2023-05-21T03:06:01;99244.41;;;17.64;60.70
52719;BME280;38616;42.140;24.760;2023-05-21T03:08:26;99241.72;;;17.55;61.11
52719;BME280;38616;42.140;24.760;2023-05-21T03:10:52;99251.34;;;17.61;60.71
52719;BME280;38616;42.140;24.760;2023-05-21T03:13:17;99248.00;;;17.77;60.33
52719;BME280;38616;42.140;24.760;2023-05-21T03:15:45;99244.72;;;17.96;59.63
52719;BME280;38616;42.140;24.760;2023-05-21T03:18:10;99256.63;;;18.21;59.24
52719;BME280;38616;42.140;24.760;2023-05-21T03:20:36;99251.25;;;18.25;59.03
52719;BME280;38616;42.140;24.760;2023-05-21T03:23:07;99242.56;;;18.23;58.86
52719;BME280;38616;42.140;24.760;2023-05-21T03:25:33;99253.97;;;18.12;59.10
52719;BME280;38616;42.140;24.760;2023-05-21T03:27:58;99253.97;;;18.12;59.43
52719;BME280;38616;42.140;24.760;2023-05-21T03:30:24;99255.16;;;17.90;60.12
52719;BME280;38616;42.140;24.760;2023-05-21T03:32:49;99256.81;;;17.82;60.69
52719;BME280;38616;42.140;24.760;2023-05-21T03:35:15;99262.00;;;17.63;60.96
52719;BME280;38616;42.140;24.760;2023-05-21T03:37:41;99256.13;;;17.31;61.94
52719;BME280;38616;42.140;24.760;2023-05-21T03:40:06;99252.81;;;17.37;62.06
52719;BME280;38616;42.140;24.760;2023-05-21T03:42:32;99246.25;;;17.72;61.34
52719;BME280;38616;42.140;24.760;2023-05-21T03:44:57;99253.13;;;17.78;61.06
52719;BME280;38616;42.140;24.760;2023-05-21T03:47:23;99255.00;;;17.86;60.85
52719;BME280;38616;42.140;24.760;2023-05-21T03:49:51;99253.78;;;17.63;60.97
52719;BME280;38616;42.140;24.760;2023-05-21T03:52:16;99259.59;;;17.40;61.93
52719;BME280;38616;42.140;24.760;2023-05-21T03:54:42;99260.75;;;17.39;61.84
52719;BME280;38616;42.140;24.760;2023-05-21T03:57:08;99249.59;;;17.35;62.13
52719;BME280;38616;42.140;24.760;2023-05-21T03:59:33;99253.44;;;17.22;62.37
52719;BME280;38616;42.140;24.760;2023-05-21T04:01:59;99263.75;;;17.46;61.96
52719;BME280;38616;42.140;24.760;2023-05-21T04:04:24;99250.81;;;17.47;61.58
52719;BME280;38616;42.140;24.760;2023-05-21T04:06:50;99251.75;;;17.51;61.42
52719;BME280;38616;42.140;24.760;2023-05-21T04:09:15;99257.41;;;17.54;61.48
52719;BME280;38616;42.140;24.760;2023-05-21T04:11:41;99254.91;;;17.62;61.11
52719;BME280;38616;42.140;24.760;2023-05-21T04:14:06;99248.56;;;17.82;60.68
52719;BME280;38616;42.140;24.760;2023-05-21T04:16:31;99256.06;;;17.61;60.98
52719;BME280;38616;42.140;24.760;2023-05-21T04:18:59;99255.78;;;17.53;61.46
52719;BME280;38616;42.140;24.760;2023-05-21T04:21:24;99247.19;;;17.55;61.38
52719;BME280;38616;42.140;24.760;2023-05-21T04:23:50;99252.19;;;17.74;61.00
52719;BME280;38616;42.140;24.760;2023-05-21T04:26:18;99252.16;;;17.62;61.44
52719;BME280;38616;42.140;24.760;2023-05-21T04:28:43;99253.13;;;17.78;60.85
52719;BME280;38616;42.140;24.760;2023-05-21T04:31:10;99250.38;;;17.78;61.04
52719;BME280;38616;42.140;24.760;2023-05-21T04:33:37;99249.47;;;17.53;61.39
52719;BME280;38616;42.140;24.760;2023-05-21T04:36:02;99252.56;;;17.51;61.25
52719;BME280;38616;42.140;24.760;2023-05-21T04:38:27;99246.53;;;17.58;61.47
52719;BME280;38616;42.140;24.760;2023-05-21T04:40:53;99253.22;;;17.69;61.23
52719;BME280;38616;42.140;24.760;2023-05-21T04:43:19;99251.16;;;17.66;60.75
52719;BME280;38616;42.140;24.760;2023-05-21T04:45:51;99253.34;;;17.73;60.89
52719;BME280;38616;42.140;24.760;2023-05-21T04:48:16;99263.16;;;17.62;60.86
52719;BME280;38616;42.140;24.760;2023-05-21T04:50:43;99247.75;;;17.48;61.47
52719;BME280;38616;42.140;24.760;2023-05-21T04:53:08;99259.00;;;17.55;61.59
52719;BME280;38616;42.140;24.760;2023-05-21T04:55:34;99255.50;;;17.67;61.02
52719;BME280;38616;42.140;24.760;2023-05-21T04:58:07;99257.69;;;17.74;61.00
52719;BME280;38616;42.140;24.760;2023-05-21T05:00:35;99253.44;;;17.98;60.36
52719;BME280;38616;42.140;24.760;2023-05-21T05:03:01;99251.06;;;17.75;60.49
52719;BME280;38616;42.140;24.760;2023-05-21T05:05:27;99253.03;;;17.53;60.86
52719;BME280;38616;42.140;24.760;2023-05-21T05:07:52;99251.97;;;17.46;61.24
52719;BME280;38616;42.140;24.760;2023-05-21T05:10:17;99261.13;;;17.71;60.80
52719;BME280;38616;42.140;24.760;2023-05-21T05:12:43;99264.53;;;17.89;60.42
52719;BME280;38616;42.140;24.760;2023-05-21T05:15:09;99258.03;;;17.72;60.08
52719;BME280;38616;42.140;24.760;2023-05-21T05:17:34;99258.84;;;17.52;60.72
52719;BME280;38616;42.140;24.760;2023-05-21T05:20:00;99266.88;;;17.57;60.87
52719;BME280;38616;42.140;24.760;2023-05-21T05:22:25;99269.78;;;17.61;60.65
52719;BME280;38616;42.140;24.760;2023-05-21T05:24:51;99272.38;;;17.78;61.12
52719;BME280;38616;42.140;24.760;2023-05-21T05:27:19;99266.31;;;17.51;61.30
52719;BME280;38616;42.140;24.760;2023-05-21T05:29:44;99270.56;;;17.61;61.15
52719;BME280;38616;42.140;24.760;2023-05-21T05:32:10;99277.13;;;17.90;60.40
52719;BME280;38616;42.140;24.760;2023-05-21T05:34:36;99275.31;;;17.94;60.05
52719;BME280;38616;42.140;24.760;2023-05-21T05:37:02;99268.31;;;18.30;59.10
52719;BME280;38616;42.140;24.760;2023-05-21T05:39:28;99280.13;;;18.31;58.79
52719;BME280;38616;42.140;24.760;2023-05-21T05:41:55;99283.75;;;18.10;59.20
52719;BME280;38616;42.140;24.760;2023-05-21T05:44:20;99287.75;;;17.92;60.04
52719;BME280;38616;42.140;24.760;2023-05-21T05:46:46;99292.75;;;17.56;60.83
52719;BME280;38616;42.140;24.760;2023-05-21T05:49:11;99279.16;;;17.60;61.22
52719;BME280;38616;42.140;24.760;2023-05-21T05:51:38;99286.03;;;17.87;61.00
52719;BME280;38616;42.140;24.760;2023-05-21T05:54:03;99290.84;;;18.11;60.65
52719;BME280;38616;42.140;24.760;2023-05-21T05:56:29;99293.34;;;17.83;61.72
52719;BME280;38616;42.140;24.760;2023-05-21T05:58:54;99299.41;;;17.25;63.41
52719;BME280;38616;42.140;24.760;2023-05-21T06:01:20;99298.28;;;17.26;63.62
52719;BME280;38616;42.140;24.760;2023-05-21T06:03:48;99287.97;;;17.23;63.54
52719;BME280;38616;42.140;24.760;2023-05-21T06:06:14;99297.66;;;17.50;63.01
52719;BME280;38616;42.140;24.760;2023-05-21T06:08:41;99305.38;;;17.91;62.02
52719;BME280;38616;42.140;24.760;2023-05-21T06:11:06;99295.00;;;17.96;61.26
52719;BME280;38616;42.140;24.760;2023-05-21T06:13:31;99299.59;;;18.26;60.53
52719;BME280;38616;42.140;24.760;2023-05-21T06:15:57;99297.31;;;18.28;60.33
52719;BME280;38616;42.140;24.760;2023-05-21T06:18:22;99301.59;;;18.04;60.45
52719;BME280;38616;42.140;24.760;2023-05-21T06:20:48;99296.63;;;17.97;60.89
52719;BME280;38616;42.140;24.760;2023-05-21T06:23:13;99288.88;;;17.99;61.32
52719;BME280;38616;42.140;24.760;2023-05-21T06:25:39;99277.41;;;18.43;60.38
52719;BME280;38616;42.140;24.760;2023-05-21T06:28:05;99284.66;;;18.60;60.19
52719;BME280;38616;42.140;24.760;2023-05-21T06:30:30;99279.84;;;18.57;59.78
52719;BME280;38616;42.140;24.760;2023-05-21T06:32:56;99286.47;;;18.56;59.52
52719;BME280;38616;42.140;24.760;2023-05-21T06:35:22;99282.69;;;18.61;59.39
52719;BME280;38616;42.140;24.760;2023-05-21T06:37:48;99286.16;;;18.83;58.88
52719;BME280;38616;42.140;24.760;2023-05-21T06:40:13;99282.50;;;19.16;58.44
52719;BME280;38616;42.140;24.760;2023-05-21T06:42:39;99292.47;;;19.33;57.71
52719;BME280;38616;42.140;24.760;2023-05-21T06:45:04;99288.34;;;19.27;57.25
52719;BME280;38616;42.140;24.760;2023-05-21T06:47:30;99295.81;;;19.26;56.73
52719;BME280;38616;42.140;24.760;2023-05-21T06:49:57;99285.56;;;19.39;56.68
52719;BME280;38616;42.140;24.760;2023-05-21T06:52:24;99292.19;;;19.51;57.23
52719;BME280;38616;42.140;24.760;2023-05-21T06:54:53;99284.19;;;19.45;57.17
52719;BME280;38616;42.140;24.760;2023-05-21T06:57:19;99285.88;;;19.50;57.39
52719;BME280;38616;42.140;24.760;2023-05-21T06:59:44;99298.91;;;19.66;56.99
52719;BME280;38616;42.140;24.760;2023-05-21T07:02:10;99295.91;;;19.71;57.21
52719;BME280;38616;42.140;24.760;2023-05-21T07:04:35;99275.63;;;19.63;57.97
52719;BME280;38616;42.140;24.760;2023-05-21T07:07:01;99287.94;;;19.53;59.19
52719;BME280;38616;42.140;24.760;2023-05-21T07:09:28;99287.22;;;19.56;60.27
52719;BME280;38616;42.140;24.760;2023-05-21T07:11:54;99299.75;;;19.66;60.51
52719;BME280;38616;42.140;24.760;2023-05-21T07:14:19;99291.09;;;19.68;60.96
52719;BME280;38616;42.140;24.760;2023-05-21T07:16:45;99289.72;;;19.74;60.16
52719;BME280;38616;42.140;24.760;2023-05-21T07:19:10;99286.50;;;19.72;59.72
52719;BME280;38616;42.140;24.760;2023-05-21T07:21:36;99285.56;;;19.80;60.21
52719;BME280;38616;42.140;24.760;2023-05-21T07:24:01;99282.97;;;19.71;60.14
52719;BME280;38616;42.140;24.760;2023-05-21T07:26:26;99281.00;;;19.72;60.18
52719;BME280;38616;42.140;24.760;2023-05-21T07:28:52;99281.03;;;19.88;59.87
52719;BME280;38616;42.140;24.760;2023-05-21T07:31:17;99289.66;;;19.99;59.30
52719;BME280;38616;42.140;24.760;2023-05-21T07:33:43;99284.13;;;19.99;59.39
52719;BME280;38616;42.140;24.760;2023-05-21T07:36:08;99287.63;;;20.12;58.96
52719;BME280;38616;42.140;24.760;2023-05-21T07:38:34;99277.47;;;20.00;57.87
52719;BME280;38616;42.140;24.760;2023-05-21T07:40:59;99293.50;;;20.10;57.10
52719;BME280;38616;42.140;24.760;2023-05-21T07:43:25;99290.94;;;20.17;56.52
52719;BME280;38616;42.140;24.760;2023-05-21T07:45:50;99290.13;;;20.17;56.11
52719;BME280;38616;42.140;24.760;2023-05-21T07:48:17;99287.75;;;20.15;56.19
52719;BME280;38616;42.140;24.760;2023-05-21T07:50:42;99300.22;;;20.41;55.80
52719;BME280;38616;42.140;24.760;2023-05-21T07:53:09;99295.78;;;20.52;56.11
52719;BME280;38616;42.140;24.760;2023-05-21T07:55:34;99298.47;;;20.65;55.88
52719;BME280;38616;42.140;24.760;2023-05-21T07:58:00;99303.97;;;20.65;55.89
52719;BME280;38616;42.140;24.760;2023-05-21T08:00:26;99297.94;;;20.75;55.21
52719;BME280;38616;42.140;24.760;2023-05-21T08:02:51;99284.41;;;20.86;54.49
52719;BME280;38616;42.140;24.760;2023-05-21T08:05:17;99291.88;;;21.02;53.34
52719;BME280;38616;42.140;24.760;2023-05-21T08:07:42;99296.00;;;20.92;53.65
52719;BME280;38616;42.140;24.760;2023-05-21T08:10:08;99293.59;;;21.06;52.64
52719;BME280;38616;42.140;24.760;2023-05-21T08:12:33;99282.97;;;21.08;52.34
52719;BME280;38616;42.140;24.760;2023-05-21T08:14:58;99293.47;;;21.03;51.92
52719;BME280;38616;42.140;24.760;2023-05-21T08:17:24;99298.19;;;21.18;51.11
52719;BME280;38616;42.140;24.760;2023-05-21T08:19:49;99302.16;;;21.21;51.30
52719;BME280;38616;42.140;24.760;2023-05-21T08:22:15;99293.97;;;21.24;50.40
52719;BME280;38616;42.140;24.760;2023-05-21T08:24:40;99298.41;;;21.29;50.20
52719;BME280;38616;42.140;24.760;2023-05-21T08:27:06;99300.13;;;21.34;50.17
52719;BME280;38616;42.140;24.760;2023-05-21T08:29:32;99306.03;;;21.52;50.43
52719;BME280;38616;42.140;24.760;2023-05-21T08:31:57;99292.75;;;21.58;47.81
52719;BME280;38616;42.140;24.760;2023-05-21T08:34:23;99293.72;;;21.65;46.93
52719;BME280;38616;42.140;24.760;2023-05-21T08:36:49;99300.09;;;21.69;45.88
52719;BME280;38616;42.140;24.760;2023-05-21T08:39:14;99291.53;;;21.75;45.91
52719;BME280;38616;42.140;24.760;2023-05-21T08:41:40;99289.41;;;21.88;46.38
52719;BME280;38616;42.140;24.760;2023-05-21T08:44:11;99301.91;;;22.01;45.62
52719;BME280;38616;42.140;24.760;2023-05-21T08:46:39;99307.00;;;21.99;46.10
52719;BME280;38616;42.140;24.760;2023-05-21T08:49:10;99305.84;;;22.00;44.74
52719;BME280;38616;42.140;24.760;2023-05-21T08:51:37;99298.38;;;21.81;44.46
52719;BME280;38616;42.140;24.760;2023-05-21T08:54:06;99272.03;;;21.87;45.23
52719;BME280;38616;42.140;24.760;2023-05-21T08:56:32;99272.97;;;21.75;45.58
52719;BME280;38616;42.140;24.760;2023-05-21T08:58:58;99279.38;;;21.79;45.47
52719;BME280;38616;42.140;24.760;2023-05-21T09:01:24;99275.97;;;21.86;45.98
52719;BME280;38616;42.140;24.760;2023-05-21T09:03:51;99288.38;;;21.96;45.29
52719;BME280;38616;42.140;24.760;2023-05-21T09:06:18;99280.91;;;21.96;44.49
52719;BME280;38616;42.140;24.760;2023-05-21T09:08:44;99280.41;;;22.14;43.00
52719;BME280;38616;42.140;24.760;2023-05-21T09:11:14;99272.41;;;22.09;43.26
52719;BME280;38616;42.140;24.760;2023-05-21T09:13:40;99277.50;;;22.26;43.07
52719;BME280;38616;42.140;24.760;2023-05-21T09:16:08;99274.25;;;22.21;41.96
52719;BME280;38616;42.140;24.760;2023-05-21T09:18:34;99277.34;;;22.19;41.95
52719;BME280;38616;42.140;24.760;2023-05-21T09:21:29;99276.72;;;22.26;42.04
52719;BME280;38616;42.140;24.760;2023-05-21T09:23:56;99272.63;;;22.20;42.01
52719;BME280;38616;42.140;24.760;2023-05-21T09:26:23;99281.97;;;22.11;42.44
52719;BME280;38616;42.140;24.760;2023-05-21T09:28:50;99274.47;;;22.12;42.05
52719;BME280;38616;42.140;24.760;2023-05-21T09:31:16;99270.16;;;22.14;42.04
52719;BME280;38616;42.140;24.760;2023-05-21T09:33:45;99285.47;;;22.08;42.01
52719;BME280;38616;42.140;24.760;2023-05-21T09:36:14;99280.41;;;22.14;41.58
52719;BME280;38616;42.140;24.760;2023-05-21T09:38:39;99288.50;;;22.23;41.13
52719;BME280;38616;42.140;24.760;2023-05-21T09:41:05;99280.69;;;22.28;40.79
52719;BME280;38616;42.140;24.760;2023-05-21T09:43:31;99283.00;;;22.03;40.29
52719;BME280;38616;42.140;24.760;2023-05-21T09:45:56;99283.91;;;22.11;41.17
52719;BME280;38616;42.140;24.760;2023-05-21T09:48:35;99285.41;;;22.05;41.69
52719;BME280;38616;42.140;24.760;2023-05-21T09:51:17;99291.88;;;22.36;40.84
52719;BME280;38616;42.140;24.760;2023-05-21T09:56:08;99281.00;;;22.23;39.23
52719;BME280;38616;42.140;24.760;2023-05-21T09:58:34;99285.63;;;22.39;40.29
52719;BME280;38616;42.140;24.760;2023-05-21T10:01:00;99284.75;;;22.35;40.26
52719;BME280;38616;42.140;24.760;2023-05-21T10:03:26;99278.97;;;22.20;39.57
52719;BME280;38616;42.140;24.760;2023-05-21T10:05:54;99289.59;;;22.18;40.02
52719;BME280;38616;42.140;24.760;2023-05-21T10:08:21;99280.69;;;22.28;39.60
52719;BME280;38616;42.140;24.760;2023-05-21T10:10:49;99282.59;;;22.24;40.78
52719;BME280;38616;42.140;24.760;2023-05-21T10:13:17;99284.19;;;22.25;40.68
52719;BME280;38616;42.140;24.760;2023-05-21T10:15:57;99287.84;;;22.10;41.07
52719;BME280;38616;42.140;24.760;2023-05-21T10:18:23;99286.44;;;21.96;41.05
52719;BME280;38616;42.140;24.760;2023-05-21T10:20:50;99283.00;;;21.83;41.98
52719;BME280;38616;42.140;24.760;2023-05-21T10:23:17;99290.13;;;21.84;41.58
52719;BME280;38616;42.140;24.760;2023-05-21T10:25:44;99281.50;;;21.86;42.47
52719;BME280;38616;42.140;24.760;2023-05-21T10:28:10;99279.94;;;21.89;42.60
52719;BME280;38616;42.140;24.760;2023-05-21T10:30:37;99288.75;;;21.94;42.52
52719;BME280;38616;42.140;24.760;2023-05-21T10:33:03;99285.47;;;22.08;41.94
52719;BME280;38616;42.140;24.760;2023-05-21T10:35:30;99287.06;;;22.09;42.20
52719;BME280;38616;42.140;24.760;2023-05-21T10:37:57;99293.47;;;22.13;42.59
52719;BME280;38616;42.140;24.760;2023-05-21T10:40:23;99285.06;;;22.29;42.19
52719;BME280;38616;42.140;24.760;2023-05-21T10:51:21;99296.38;;;22.64;40.65
52719;BME280;38616;42.140;24.760;2023-05-21T10:56:28;99293.44;;;22.80;38.83
52719;BME280;38616;42.140;24.760;2023-05-21T10:59:09;99286.81;;;22.61;40.16
52719;BME280;38616;42.140;24.760;2023-05-21T11:01:38;99296.16;;;22.53;40.48
52719;BME280;38616;42.140;24.760;2023-05-21T11:04:04;99286.28;;;22.52;39.70
52719;BME280;38616;42.140;24.760;2023-05-21T11:06:30;99290.75;;;22.60;40.12
52719;BME280;38616;42.140;24.760;2023-05-21T11:08:56;99288.91;;;22.68;40.70
52719;BME280;38616;42.140;24.760;2023-05-21T11:11:42;99284.91;;;22.88;40.84
52719;BME280;38616;42.140;24.760;2023-05-21T11:14:34;99280.03;;;22.82;40.79
52719;BME280;38616;42.140;24.760;2023-05-21T11:17:02;99281.81;;;22.94;41.26
52719;BME280;38616;42.140;24.760;2023-05-21T11:19:35;99280.97;;;22.90;41.41
52719;BME280;38616;42.140;24.760;2023-05-21T11:22:08;99274.50;;;22.82;41.73
52719;BME280;38616;42.140;24.760;2023-05-21T11:24:37;99269.31;;;22.53;43.05
52719;BME280;38616;42.140;24.760;2023-05-21T11:27:05;99267.31;;;22.54;42.48
52719;BME280;38616;42.140;24.760;2023-05-21T11:29:42;99269.09;;;22.42;43.35
52719;BME280;38616;42.140;24.760;2023-05-21T11:32:10;99260.28;;;22.37;42.42
52719;BME280;38616;42.140;24.760;2023-05-21T11:34:41;99275.41;;;22.43;42.84
52719;BME280;38616;42.140;24.760;2023-05-21T11:39:43;99266.50;;;22.30;43.41
52719;BME280;38616;42.140;24.760;2023-05-21T11:42:12;99264.25;;;22.59;43.05
52719;BME280;38616;42.140;24.760;2023-05-21T11:44:46;99258.41;;;22.64;42.89
52719;BME280;38616;42.140;24.760;2023-05-21T11:47:13;99257.41;;;22.53;43.66
52719;BME280;38616;42.140;24.760;2023-05-21T11:49:42;99263.47;;;22.39;43.42
52719;BME280;38616;42.140;24.760;2023-05-21T11:52:09;99255.50;;;22.34;43.77
52719;BME280;38616;42.140;24.760;2023-05-21T11:54:47;99254.91;;;22.44;43.50
52719;BME280;38616;42.140;24.760;2023-05-21T11:57:15;99256.19;;;22.27;43.74
52719;BME280;38616;42.140;24.760;2023-05-21T11:59:49;99250.56;;;22.23;43.81
52719;BME280;38616;42.140;24.760;2023-05-21T12:02:19;99247.50;;;22.28;44.19
52719;BME280;38616;42.140;24.760;2023-05-21T12:04:46;99250.81;;;22.38;44.13
52719;BME280;38616;42.140;24.760;2023-05-21T12:07:13;99242.09;;;22.36;44.51
52719;BME280;38616;42.140;24.760;2023-05-21T12:12:08;99244.16;;;22.19;45.17
52719;BME280;38616;42.140;24.760;2023-05-21T12:14:38;99235.81;;;22.16;45.46
52719;BME280;38616;42.140;24.760;2023-05-21T12:17:04;99236.47;;;22.09;45.18
52719;BME280;38616;42.140;24.760;2023-05-21T12:19:34;99236.81;;;22.04;44.65
52719;BME280;38616;42.140;24.760;2023-05-21T12:22:05;99239.38;;;22.16;44.70
52719;BME280;38616;42.140;24.760;2023-05-21T12:24:31;99230.03;;;22.24;44.26
52719;BME280;38616;42.140;24.760;2023-05-21T12:26:59;99240.59;;;21.95;44.45
52719;BME280;38616;42.140;24.760;2023-05-21T12:29:29;99241.31;;;21.92;44.75
52719;BME280;38616;42.140;24.760;2023-05-21T12:31:58;99232.72;;;21.97;45.10
52719;BME280;38616;42.140;24.760;2023-05-21T12:37:03;99226.63;;;21.88;45.44
52719;BME280;38616;42.140;24.760;2023-05-21T12:39:31;99235.63;;;22.05;45.73
52719;BME280;38616;42.140;24.760;2023-05-21T12:41:56;99238.50;;;22.12;45.70
52719;BME280;38616;42.140;24.760;2023-05-21T12:44:21;99230.34;;;22.19;45.77
52719;BME280;38616;42.140;24.760;2023-05-21T12:46:47;99223.41;;;22.06;46.00
52719;BME280;38616;42.140;24.760;2023-05-21T12:49:41;99225.09;;;22.14;46.07
52719;BME280;38616;42.140;24.760;2023-05-21T12:52:12;99226.28;;;22.13;46.08
52719;BME280;38616;42.140;24.760;2023-05-21T12:54:40;99226.69;;;22.15;46.51
52719;BME280;38616;42.140;24.760;2023-05-21T12:57:15;99221.94;;;22.35;45.08
52719;BME280;38616;42.140;24.760;2023-05-21T12:59:51;99225.72;;;22.47;44.23
52719;BME280;38616;42.140;24.760;2023-05-21T13:07:19;99218.00;;;22.60;42.89
52719;BME280;38616;42.140;24.760;2023-05-21T13:09:45;99225.25;;;22.68;41.48
52719;BME280;38616;42.140;24.760;2023-05-21T13:12:11;99217.69;;;22.65;41.31
52719;BME280;38616;42.140;24.760;2023-05-21T13:14:37;99222.53;;;22.71;41.41